sensor_id;sensor_type;location;lat;lon;timestamp;P1;durP1;ratioP1;P2;durP2;ratioP2
43146;SDS011;28752;48.266;7.402;2023-08-06T00:01:47;3.47;;;1.70;;
43146;SDS011;28752;48.266;7.402;2023-08-06T00:04:12;5.80;;;1.50;;
43146;SDS011;28752;48.266;7.402;2023-08-06T00:06:37;2.97;;;1.30;;
43146;SDS011;28752;48.266;7.402;2023-08-06T00:09:03;3.23;;;1.47;;
43146;SDS011;28752;48.266;7.402;2023-08-06T00:11:28;3.38;;;1.33;;
43146;SDS011;28752;48.266;7.402;2023-08-06T00:13:54;4.87;;;1.47;;
43146;SDS011;28752;48.266;7.402;2023-08-06T00:16:19;3.57;;;1.40;;
43146;SDS011;28752;48.266;7.402;2023-08-06T00:18:44;3.60;;;1.50;;
43146;SDS011;28752;48.266;7.402;2023-08-06T00:21:10;3.17;;;1.57;;
43146;SDS011;28752;48.266;7.402;2023-08-06T00:23:37;4.05;;;1.33;;
43146;SDS011;28752;48.266;7.402;2023-08-06T00:26:02;3.72;;;1.60;;
43146;SDS011;28752;48.266;7.402;2023-08-06T00:28:28;4.55;;;1.50;;
43146;SDS011;28752;48.266;7.402;2023-08-06T00:30:54;4.90;;;1.63;;
43146;SDS011;28752;48.266;7.402;2023-08-06T00:33:23;3.90;;;1.52;;
43146;SDS011;28752;48.266;7.402;2023-08-06T00:38:14;3.33;;;1.58;;
43146;SDS011;28752;48.266;7.402;2023-08-06T00:40:39;5.80;;;1.60;;
43146;SDS011;28752;48.266;7.402;2023-08-06T00:43:05;4.17;;;1.43;;
43146;SDS011;28752;48.266;7.402;2023-08-06T00:45:30;4.07;;;1.40;;
43146;SDS011;28752;48.266;7.402;2023-08-06T00:48:00;4.03;;;1.50;;
43146;SDS011;28752;48.266;7.402;2023-08-06T00:50:25;4.47;;;2.00;;
43146;SDS011;28752;48.266;7.402;2023-08-06T00:52:51;2.97;;;1.45;;
43146;SDS011;28752;48.266;7.402;2023-08-06T00:55:17;4.63;;;1.70;;
43146;SDS011;28752;48.266;7.402;2023-08-06T00:57:43;4.80;;;1.55;;
43146;SDS011;28752;48.266;7.402;2023-08-06T01:00:09;3.63;;;1.50;;
43146;SDS011;28752;48.266;7.402;2023-08-06T01:02:34;3.35;;;1.27;;
43146;SDS011;28752;48.266;7.402;2023-08-06T01:05:00;3.57;;;1.40;;
43146;SDS011;28752;48.266;7.402;2023-08-06T01:09:57;3.95;;;1.52;;
43146;SDS011;28752;48.266;7.402;2023-08-06T01:15:20;4.22;;;1.85;;
43146;SDS011;28752;48.266;7.402;2023-08-06T01:17:49;4.78;;;1.67;;
43146;SDS011;28752;48.266;7.402;2023-08-06T01:20:15;4.35;;;1.80;;
43146;SDS011;28752;48.266;7.402;2023-08-06T01:22:40;4.00;;;1.60;;
43146;SDS011;28752;48.266;7.402;2023-08-06T01:25:06;5.17;;;1.80;;
43146;SDS011;28752;48.266;7.402;2023-08-06T01:27:41;3.97;;;1.80;;
43146;SDS011;28752;48.266;7.402;2023-08-06T01:30:12;4.72;;;1.67;;
43146;SDS011;28752;48.266;7.402;2023-08-06T01:32:42;8.32;;;1.70;;
43146;SDS011;28752;48.266;7.402;2023-08-06T01:35:10;3.28;;;1.00;;
43146;SDS011;28752;48.266;7.402;2023-08-06T01:37:37;3.80;;;0.80;;
43146;SDS011;28752;48.266;7.402;2023-08-06T01:42:35;2.78;;;0.77;;
43146;SDS011;28752;48.266;7.402;2023-08-06T01:45:01;3.83;;;0.70;;
43146;SDS011;28752;48.266;7.402;2023-08-06T01:47:26;4.57;;;0.70;;
43146;SDS011;28752;48.266;7.402;2023-08-06T01:49:52;2.40;;;0.63;;
43146;SDS011;28752;48.266;7.402;2023-08-06T01:52:17;3.53;;;0.80;;
43146;SDS011;28752;48.266;7.402;2023-08-06T01:54:42;2.60;;;0.97;;
43146;SDS011;28752;48.266;7.402;2023-08-06T01:57:08;5.90;;;0.93;;
43146;SDS011;28752;48.266;7.402;2023-08-06T01:59:33;2.57;;;0.70;;
43146;SDS011;28752;48.266;7.402;2023-08-06T02:01:58;6.77;;;0.80;;
43146;SDS011;28752;48.266;7.402;2023-08-06T02:04:24;3.47;;;0.70;;
43146;SDS011;28752;48.266;7.402;2023-08-06T02:06:49;4.47;;;0.77;;
43146;SDS011;28752;48.266;7.402;2023-08-06T02:09:14;1.27;;;0.50;;
43146;SDS011;28752;48.266;7.402;2023-08-06T02:11:40;3.43;;;0.60;;
43146;SDS011;28752;48.266;7.402;2023-08-06T02:14:05;1.87;;;0.53;;
43146;SDS011;28752;48.266;7.402;2023-08-06T02:16:30;3.50;;;0.80;;
43146;SDS011;28752;48.266;7.402;2023-08-06T02:18:56;3.50;;;0.53;;
43146;SDS011;28752;48.266;7.402;2023-08-06T02:21:21;2.50;;;0.60;;
43146;SDS011;28752;48.266;7.402;2023-08-06T02:23:46;1.77;;;0.50;;
43146;SDS011;28752;48.266;7.402;2023-08-06T02:26:12;2.53;;;0.50;;
43146;SDS011;28752;48.266;7.402;2023-08-06T02:28:37;3.35;;;0.43;;
43146;SDS011;28752;48.266;7.402;2023-08-06T02:31:03;1.63;;;0.40;;
43146;SDS011;28752;48.266;7.402;2023-08-06T02:33:28;1.37;;;0.50;;
43146;SDS011;28752;48.266;7.402;2023-08-06T02:36:00;3.47;;;0.50;;
43146;SDS011;28752;48.266;7.402;2023-08-06T02:38:26;1.58;;;0.50;;
43146;SDS011;28752;48.266;7.402;2023-08-06T02:40:51;2.07;;;0.40;;
43146;SDS011;28752;48.266;7.402;2023-08-06T02:43:17;1.07;;;0.57;;
43146;SDS011;28752;48.266;7.402;2023-08-06T02:45:42;2.23;;;0.53;;
43146;SDS011;28752;48.266;7.402;2023-08-06T02:48:08;2.37;;;0.50;;
43146;SDS011;28752;48.266;7.402;2023-08-06T02:50:39;2.30;;;0.60;;
43146;SDS011;28752;48.266;7.402;2023-08-06T02:53:08;2.97;;;0.50;;
43146;SDS011;28752;48.266;7.402;2023-08-06T02:55:34;1.98;;;0.50;;
43146;SDS011;28752;48.266;7.402;2023-08-06T02:58:00;3.13;;;0.65;;
43146;SDS011;28752;48.266;7.402;2023-08-06T03:00:26;2.83;;;0.57;;
43146;SDS011;28752;48.266;7.402;2023-08-06T03:02:51;0.85;;;0.30;;
43146;SDS011;28752;48.266;7.402;2023-08-06T03:05:17;1.65;;;0.50;;
43146;SDS011;28752;48.266;7.402;2023-08-06T03:07:43;0.73;;;0.30;;
43146;SDS011;28752;48.266;7.402;2023-08-06T03:10:08;1.40;;;0.40;;
43146;SDS011;28752;48.266;7.402;2023-08-06T03:12:34;2.17;;;0.90;;
43146;SDS011;28752;48.266;7.402;2023-08-06T03:14:59;0.90;;;0.40;;
43146;SDS011;28752;48.266;7.402;2023-08-06T03:17:24;2.80;;;0.40;;
43146;SDS011;28752;48.266;7.402;2023-08-06T03:19:50;1.30;;;0.30;;
43146;SDS011;28752;48.266;7.402;2023-08-06T03:22:15;2.83;;;0.43;;
43146;SDS011;28752;48.266;7.402;2023-08-06T03:24:40;0.70;;;0.30;;
43146;SDS011;28752;48.266;7.402;2023-08-06T03:27:06;1.77;;;0.10;;
43146;SDS011;28752;48.266;7.402;2023-08-06T03:29:31;1.40;;;0.40;;
43146;SDS011;28752;48.266;7.402;2023-08-06T03:31:56;0.47;;;0.20;;
43146;SDS011;28752;48.266;7.402;2023-08-06T03:34:22;0.87;;;0.20;;
43146;SDS011;28752;48.266;7.402;2023-08-06T03:36:47;2.10;;;0.30;;
43146;SDS011;28752;48.266;7.402;2023-08-06T03:39:12;1.50;;;0.30;;
43146;SDS011;28752;48.266;7.402;2023-08-06T03:41:39;1.08;;;0.25;;
43146;SDS011;28752;48.266;7.402;2023-08-06T03:44:04;2.17;;;0.20;;
43146;SDS011;28752;48.266;7.402;2023-08-06T03:46:30;0.60;;;0.20;;
43146;SDS011;28752;48.266;7.402;2023-08-06T03:48:59;0.60;;;0.17;;
43146;SDS011;28752;48.266;7.402;2023-08-06T03:51:25;0.13;;;0.10;;
43146;SDS011;28752;48.266;7.402;2023-08-06T03:53:50;1.27;;;0.20;;
43146;SDS011;28752;48.266;7.402;2023-08-06T03:56:15;2.37;;;0.43;;
43146;SDS011;28752;48.266;7.402;2023-08-06T03:58:41;0.73;;;0.20;;
43146;SDS011;28752;48.266;7.402;2023-08-06T04:01:06;0.22;;;0.03;;
43146;SDS011;28752;48.266;7.402;2023-08-06T04:03:32;0.27;;;0.17;;
43146;SDS011;28752;48.266;7.402;2023-08-06T04:05:57;1.00;;;0.20;;
43146;SDS011;28752;48.266;7.402;2023-08-06T04:08:23;1.00;;;0.20;;
43146;SDS011;28752;48.266;7.402;2023-08-06T04:10:51;0.50;;;0.20;;
43146;SDS011;28752;48.266;7.402;2023-08-06T04:13:18;0.40;;;0.20;;
43146;SDS011;28752;48.266;7.402;2023-08-06T04:15:43;0.40;;;0.10;;
43146;SDS011;28752;48.266;7.402;2023-08-06T04:18:09;1.50;;;0.30;;
43146;SDS011;28752;48.266;7.402;2023-08-06T04:20:34;1.00;;;0.23;;
43146;SDS011;28752;48.266;7.402;2023-08-06T04:23:04;0.23;;;0.13;;
43146;SDS011;28752;48.266;7.402;2023-08-06T04:25:31;0.43;;;0.15;;
43146;SDS011;28752;48.266;7.402;2023-08-06T04:27:56;1.60;;;0.30;;
43146;SDS011;28752;48.266;7.402;2023-08-06T04:30:21;0.33;;;0.13;;
43146;SDS011;28752;48.266;7.402;2023-08-06T04:32:49;0.47;;;0.10;;
43146;SDS011;28752;48.266;7.402;2023-08-06T04:35:14;1.42;;;0.20;;
43146;SDS011;28752;48.266;7.402;2023-08-06T04:37:40;0.60;;;0.27;;
43146;SDS011;28752;48.266;7.402;2023-08-06T04:40:05;0.60;;;0.10;;
43146;SDS011;28752;48.266;7.402;2023-08-06T04:42:31;0.98;;;0.20;;
43146;SDS011;28752;48.266;7.402;2023-08-06T04:44:56;0.37;;;0.17;;
43146;SDS011;28752;48.266;7.402;2023-08-06T04:47:22;0.20;;;0.00;;
43146;SDS011;28752;48.266;7.402;2023-08-06T04:49:47;0.93;;;0.20;;
43146;SDS011;28752;48.266;7.402;2023-08-06T04:52:12;0.53;;;0.10;;
43146;SDS011;28752;48.266;7.402;2023-08-06T04:54:38;0.27;;;0.10;;
43146;SDS011;28752;48.266;7.402;2023-08-06T04:57:03;0.67;;;0.20;;
43146;SDS011;28752;48.266;7.402;2023-08-06T04:59:29;0.95;;;0.20;;
43146;SDS011;28752;48.266;7.402;2023-08-06T05:01:54;0.93;;;0.30;;
43146;SDS011;28752;48.266;7.402;2023-08-06T05:04:20;0.20;;;0.10;;
43146;SDS011;28752;48.266;7.402;2023-08-06T05:06:45;0.40;;;0.10;;
43146;SDS011;28752;48.266;7.402;2023-08-06T05:09:10;0.93;;;0.20;;
43146;SDS011;28752;48.266;7.402;2023-08-06T05:11:36;0.30;;;0.10;;
43146;SDS011;28752;48.266;7.402;2023-08-06T05:14:01;0.07;;;0.03;;
43146;SDS011;28752;48.266;7.402;2023-08-06T05:16:26;1.30;;;0.13;;
43146;SDS011;28752;48.266;7.402;2023-08-06T05:21:18;1.58;;;0.38;;
43146;SDS011;28752;48.266;7.402;2023-08-06T05:23:43;0.43;;;0.13;;
43146;SDS011;28752;48.266;7.402;2023-08-06T05:26:09;0.87;;;0.20;;
43146;SDS011;28752;48.266;7.402;2023-08-06T05:28:34;0.40;;;0.20;;
43146;SDS011;28752;48.266;7.402;2023-08-06T05:31:02;0.87;;;0.17;;
43146;SDS011;28752;48.266;7.402;2023-08-06T05:33:31;1.05;;;0.20;;
43146;SDS011;28752;48.266;7.402;2023-08-06T05:35:56;1.53;;;0.30;;
43146;SDS011;28752;48.266;7.402;2023-08-06T05:38:21;3.47;;;0.40;;
43146;SDS011;28752;48.266;7.402;2023-08-06T05:40:47;1.60;;;0.20;;
43146;SDS011;28752;48.266;7.402;2023-08-06T05:43:13;1.55;;;0.20;;
43146;SDS011;28752;48.266;7.402;2023-08-06T05:45:38;1.87;;;0.30;;
43146;SDS011;28752;48.266;7.402;2023-08-06T05:48:03;2.33;;;0.40;;
43146;SDS011;28752;48.266;7.402;2023-08-06T05:50:29;1.20;;;0.30;;
43146;SDS011;28752;48.266;7.402;2023-08-06T05:52:54;2.07;;;0.40;;
43146;SDS011;28752;48.266;7.402;2023-08-06T05:55:20;1.33;;;0.37;;
43146;SDS011;28752;48.266;7.402;2023-08-06T05:57:45;1.53;;;0.60;;
43146;SDS011;28752;48.266;7.402;2023-08-06T06:00:11;2.23;;;0.40;;
43146;SDS011;28752;48.266;7.402;2023-08-06T06:02:36;0.85;;;0.30;;
43146;SDS011;28752;48.266;7.402;2023-08-06T06:05:02;1.63;;;0.40;;
43146;SDS011;28752;48.266;7.402;2023-08-06T06:07:27;1.07;;;0.43;;
43146;SDS011;28752;48.266;7.402;2023-08-06T06:09:52;4.03;;;0.63;;
43146;SDS011;28752;48.266;7.402;2023-08-06T06:12:18;1.60;;;0.50;;
43146;SDS011;28752;48.266;7.402;2023-08-06T06:14:43;2.10;;;0.50;;
43146;SDS011;28752;48.266;7.402;2023-08-06T06:17:09;1.90;;;0.50;;
43146;SDS011;28752;48.266;7.402;2023-08-06T06:19:34;0.67;;;0.30;;
43146;SDS011;28752;48.266;7.402;2023-08-06T06:21:59;1.50;;;0.50;;
43146;SDS011;28752;48.266;7.402;2023-08-06T06:24:25;2.73;;;0.70;;
43146;SDS011;28752;48.266;7.402;2023-08-06T06:26:50;1.63;;;0.30;;
43146;SDS011;28752;48.266;7.402;2023-08-06T06:29:15;1.70;;;0.30;;
43146;SDS011;28752;48.266;7.402;2023-08-06T06:31:41;2.67;;;0.53;;
43146;SDS011;28752;48.266;7.402;2023-08-06T06:34:06;2.90;;;0.43;;
43146;SDS011;28752;48.266;7.402;2023-08-06T06:36:31;1.23;;;0.40;;
43146;SDS011;28752;48.266;7.402;2023-08-06T06:38:57;1.67;;;0.27;;
43146;SDS011;28752;48.266;7.402;2023-08-06T06:41:22;1.67;;;0.27;;
43146;SDS011;28752;48.266;7.402;2023-08-06T06:43:47;0.27;;;0.20;;
43146;SDS011;28752;48.266;7.402;2023-08-06T06:46:13;1.33;;;0.33;;
43146;SDS011;28752;48.266;7.402;2023-08-06T06:48:38;1.27;;;0.37;;
43146;SDS011;28752;48.266;7.402;2023-08-06T06:51:03;0.20;;;0.10;;
43146;SDS011;28752;48.266;7.402;2023-08-06T06:53:29;2.37;;;0.30;;
43146;SDS011;28752;48.266;7.402;2023-08-06T06:56:01;1.88;;;0.45;;
43146;SDS011;28752;48.266;7.402;2023-08-06T06:58:28;1.17;;;0.40;;
43146;SDS011;28752;48.266;7.402;2023-08-06T07:00:54;0.70;;;0.13;;
43146;SDS011;28752;48.266;7.402;2023-08-06T07:03:19;0.20;;;0.20;;
43146;SDS011;28752;48.266;7.402;2023-08-06T07:05:45;2.75;;;0.68;;
43146;SDS011;28752;48.266;7.402;2023-08-06T07:08:11;0.55;;;0.10;;
43146;SDS011;28752;48.266;7.402;2023-08-06T07:10:37;0.70;;;0.15;;
43146;SDS011;28752;48.266;7.402;2023-08-06T07:13:02;0.55;;;0.10;;
43146;SDS011;28752;48.266;7.402;2023-08-06T07:15:28;2.13;;;0.30;;
43146;SDS011;28752;48.266;7.402;2023-08-06T07:17:54;0.10;;;0.00;;
43146;SDS011;28752;48.266;7.402;2023-08-06T07:20:19;0.00;;;0.00;;
43146;SDS011;28752;48.266;7.402;2023-08-06T07:22:48;0.10;;;0.00;;
43146;SDS011;28752;48.266;7.402;2023-08-06T07:25:13;0.20;;;0.10;;
43146;SDS011;28752;48.266;7.402;2023-08-06T07:27:39;1.30;;;0.40;;
43146;SDS011;28752;48.266;7.402;2023-08-06T07:30:04;2.50;;;0.32;;
43146;SDS011;28752;48.266;7.402;2023-08-06T07:32:30;0.65;;;0.52;;
43146;SDS011;28752;48.266;7.402;2023-08-06T07:34:56;0.32;;;0.10;;
43146;SDS011;28752;48.266;7.402;2023-08-06T07:37:24;2.17;;;0.10;;
43146;SDS011;28752;48.266;7.402;2023-08-06T07:39:50;0.00;;;0.00;;
43146;SDS011;28752;48.266;7.402;2023-08-06T07:42:15;0.00;;;0.00;;
43146;SDS011;28752;48.266;7.402;2023-08-06T07:44:41;0.30;;;0.00;;
43146;SDS011;28752;48.266;7.402;2023-08-06T07:47:06;0.00;;;0.00;;
43146;SDS011;28752;48.266;7.402;2023-08-06T07:49:32;0.00;;;0.00;;
43146;SDS011;28752;48.266;7.402;2023-08-06T07:51:58;0.00;;;0.00;;
43146;SDS011;28752;48.266;7.402;2023-08-06T07:54:23;0.00;;;0.00;;
43146;SDS011;28752;48.266;7.402;2023-08-06T07:56:49;0.00;;;0.00;;
43146;SDS011;28752;48.266;7.402;2023-08-06T07:59:14;0.00;;;0.00;;
43146;SDS011;28752;48.266;7.402;2023-08-06T08:01:40;1.63;;;0.30;;
43146;SDS011;28752;48.266;7.402;2023-08-06T08:04:05;0.00;;;0.00;;
43146;SDS011;28752;48.266;7.402;2023-08-06T08:06:32;0.00;;;0.00;;
43146;SDS011;28752;48.266;7.402;2023-08-06T08:08:58;0.08;;;0.00;;
43146;SDS011;28752;48.266;7.402;2023-08-06T08:11:25;0.77;;;0.00;;
43146;SDS011;28752;48.266;7.402;2023-08-06T08:13:51;0.00;;;0.00;;
43146;SDS011;28752;48.266;7.402;2023-08-06T08:16:16;0.10;;;0.00;;
43146;SDS011;28752;48.266;7.402;2023-08-06T08:18:41;0.00;;;0.00;;
43146;SDS011;28752;48.266;7.402;2023-08-06T08:21:07;0.20;;;0.10;;
43146;SDS011;28752;48.266;7.402;2023-08-06T08:23:32;0.10;;;0.00;;
43146;SDS011;28752;48.266;7.402;2023-08-06T08:25:58;0.22;;;0.00;;
43146;SDS011;28752;48.266;7.402;2023-08-06T08:28:23;0.20;;;0.00;;
43146;SDS011;28752;48.266;7.402;2023-08-06T08:30:49;1.70;;;0.17;;
43146;SDS011;28752;48.266;7.402;2023-08-06T08:33:14;0.10;;;0.00;;
43146;SDS011;28752;48.266;7.402;2023-08-06T08:36:05;0.10;;;0.00;;
43146;SDS011;28752;48.266;7.402;2023-08-06T08:38:31;0.00;;;0.00;;
43146;SDS011;28752;48.266;7.402;2023-08-06T08:40:56;0.00;;;0.00;;
43146;SDS011;28752;48.266;7.402;2023-08-06T08:43:22;0.08;;;0.00;;
43146;SDS011;28752;48.266;7.402;2023-08-06T08:48:17;2.72;;;0.00;;
43146;SDS011;28752;48.266;7.402;2023-08-06T08:50:47;0.00;;;0.00;;
43146;SDS011;28752;48.266;7.402;2023-08-06T08:53:14;0.68;;;0.08;;
43146;SDS011;28752;48.266;7.402;2023-08-06T08:55:41;0.00;;;0.00;;
43146;SDS011;28752;48.266;7.402;2023-08-06T08:58:08;0.00;;;0.00;;
43146;SDS011;28752;48.266;7.402;2023-08-06T09:00:33;0.00;;;0.00;;
43146;SDS011;28752;48.266;7.402;2023-08-06T09:03:00;1.08;;;0.00;;
43146;SDS011;28752;48.266;7.402;2023-08-06T09:05:28;0.00;;;0.00;;
43146;SDS011;28752;48.266;7.402;2023-08-06T09:07:56;0.00;;;0.00;;
43146;SDS011;28752;48.266;7.402;2023-08-06T09:10:28;0.00;;;0.00;;
43146;SDS011;28752;48.266;7.402;2023-08-06T09:12:53;0.13;;;0.00;;
43146;SDS011;28752;48.266;7.402;2023-08-06T09:15:23;0.08;;;0.00;;
43146;SDS011;28752;48.266;7.402;2023-08-06T09:17:49;0.10;;;0.00;;
43146;SDS011;28752;48.266;7.402;2023-08-06T09:20:15;0.37;;;0.00;;
43146;SDS011;28752;48.266;7.402;2023-08-06T09:25:06;0.08;;;0.00;;
43146;SDS011;28752;48.266;7.402;2023-08-06T09:27:36;0.00;;;0.00;;
43146;SDS011;28752;48.266;7.402;2023-08-06T09:30:02;0.00;;;0.00;;
43146;SDS011;28752;48.266;7.402;2023-08-06T09:32:44;0.00;;;0.00;;
43146;SDS011;28752;48.266;7.402;2023-08-06T09:35:15;0.00;;;0.00;;
43146;SDS011;28752;48.266;7.402;2023-08-06T09:37:42;0.00;;;0.00;;
43146;SDS011;28752;48.266;7.402;2023-08-06T09:42:58;0.00;;;0.00;;
43146;SDS011;28752;48.266;7.402;2023-08-06T09:45:28;0.20;;;0.10;;
43146;SDS011;28752;48.266;7.402;2023-08-06T09:48:08;0.20;;;0.10;;
43146;SDS011;28752;48.266;7.402;2023-08-06T09:50:35;0.08;;;0.03;;
43146;SDS011;28752;48.266;7.402;2023-08-06T09:53:03;0.60;;;0.10;;
43146;SDS011;28752;48.266;7.402;2023-08-06T09:55:35;0.10;;;0.03;;
43146;SDS011;28752;48.266;7.402;2023-08-06T09:58:01;0.20;;;0.10;;
43146;SDS011;28752;48.266;7.402;2023-08-06T10:00:27;0.30;;;0.00;;
43146;SDS011;28752;48.266;7.402;2023-08-06T10:02:54;0.00;;;0.00;;
43146;SDS011;28752;48.266;7.402;2023-08-06T10:05:24;0.57;;;0.10;;
43146;SDS011;28752;48.266;7.402;2023-08-06T10:07:50;0.98;;;0.20;;
43146;SDS011;28752;48.266;7.402;2023-08-06T10:10:17;0.45;;;0.30;;
43146;SDS011;28752;48.266;7.402;2023-08-06T10:12:51;0.88;;;0.30;;
43146;SDS011;28752;48.266;7.402;2023-08-06T10:15:24;0.70;;;0.30;;
43146;SDS011;28752;48.266;7.402;2023-08-06T10:20:47;0.47;;;0.20;;
43146;SDS011;28752;48.266;7.402;2023-08-06T10:23:13;0.50;;;0.15;;
43146;SDS011;28752;48.266;7.402;2023-08-06T10:25:40;0.65;;;0.30;;
43146;SDS011;28752;48.266;7.402;2023-08-06T10:28:08;0.98;;;0.35;;
43146;SDS011;28752;48.266;7.402;2023-08-06T10:30:40;0.50;;;0.20;;
43146;SDS011;28752;48.266;7.402;2023-08-06T10:33:07;1.20;;;0.20;;
43146;SDS011;28752;48.266;7.402;2023-08-06T10:38:05;1.08;;;0.30;;
43146;SDS011;28752;48.266;7.402;2023-08-06T10:40:32;0.20;;;0.10;;
43146;SDS011;28752;48.266;7.402;2023-08-06T10:42:58;0.75;;;0.20;;
43146;SDS011;28752;48.266;7.402;2023-08-06T10:45:25;0.43;;;0.20;;
43146;SDS011;28752;48.266;7.402;2023-08-06T10:47:53;1.02;;;0.10;;
43146;SDS011;28752;48.266;7.402;2023-08-06T10:50:20;0.45;;;0.20;;
43146;SDS011;28752;48.266;7.402;2023-08-06T10:52:46;0.40;;;0.22;;
43146;SDS011;28752;48.266;7.402;2023-08-06T10:55:22;0.25;;;0.15;;
43146;SDS011;28752;48.266;7.402;2023-08-06T10:58:01;0.17;;;0.10;;
43146;SDS011;28752;48.266;7.402;2023-08-06T11:00:26;0.43;;;0.20;;
43146;SDS011;28752;48.266;7.402;2023-08-06T11:02:52;0.47;;;0.10;;
43146;SDS011;28752;48.266;7.402;2023-08-06T11:05:18;0.50;;;0.13;;
43146;SDS011;28752;48.266;7.402;2023-08-06T11:07:43;0.47;;;0.10;;
43146;SDS011;28752;48.266;7.402;2023-08-06T11:10:11;0.10;;;0.10;;
43146;SDS011;28752;48.266;7.402;2023-08-06T11:12:37;1.05;;;0.22;;
43146;SDS011;28752;48.266;7.402;2023-08-06T11:15:03;0.32;;;0.30;;
43146;SDS011;28752;48.266;7.402;2023-08-06T11:17:31;0.40;;;0.20;;
43146;SDS011;28752;48.266;7.402;2023-08-06T11:20:00;0.52;;;0.20;;
43146;SDS011;28752;48.266;7.402;2023-08-06T11:22:29;0.35;;;0.20;;
43146;SDS011;28752;48.266;7.402;2023-08-06T11:24:54;0.93;;;0.33;;
43146;SDS011;28752;48.266;7.402;2023-08-06T11:27:20;0.73;;;0.20;;
43146;SDS011;28752;48.266;7.402;2023-08-06T11:29:46;0.52;;;0.28;;
43146;SDS011;28752;48.266;7.402;2023-08-06T11:32:11;0.30;;;0.10;;
43146;SDS011;28752;48.266;7.402;2023-08-06T11:34:37;0.60;;;0.30;;
43146;SDS011;28752;48.266;7.402;2023-08-06T11:37:04;0.60;;;0.30;;
43146;SDS011;28752;48.266;7.402;2023-08-06T11:39:33;0.70;;;0.30;;
43146;SDS011;28752;48.266;7.402;2023-08-06T11:41:59;0.85;;;0.30;;
43146;SDS011;28752;48.266;7.402;2023-08-06T11:44:29;1.75;;;0.35;;
43146;SDS011;28752;48.266;7.402;2023-08-06T11:46:59;0.32;;;0.15;;
43146;SDS011;28752;48.266;7.402;2023-08-06T11:52:20;1.10;;;0.20;;
43146;SDS011;28752;48.266;7.402;2023-08-06T11:55:09;0.20;;;0.10;;
43146;SDS011;28752;48.266;7.402;2023-08-06T11:57:40;1.15;;;0.30;;
43146;SDS011;28752;48.266;7.402;2023-08-06T12:00:09;0.43;;;0.20;;
43146;SDS011;28752;48.266;7.402;2023-08-06T12:02:39;0.65;;;0.38;;
43146;SDS011;28752;48.266;7.402;2023-08-06T12:07:36;0.30;;;0.20;;
43146;SDS011;28752;48.266;7.402;2023-08-06T12:10:03;0.40;;;0.20;;
43146;SDS011;28752;48.266;7.402;2023-08-06T12:12:28;0.88;;;0.30;;
43146;SDS011;28752;48.266;7.402;2023-08-06T12:14:54;0.60;;;0.20;;
43146;SDS011;28752;48.266;7.402;2023-08-06T12:17:20;0.38;;;0.30;;
43146;SDS011;28752;48.266;7.402;2023-08-06T12:19:46;1.08;;;0.32;;
43146;SDS011;28752;48.266;7.402;2023-08-06T12:22:12;1.10;;;0.30;;
43146;SDS011;28752;48.266;7.402;2023-08-06T12:27:04;0.65;;;0.35;;
43146;SDS011;28752;48.266;7.402;2023-08-06T12:29:30;1.17;;;0.47;;
43146;SDS011;28752;48.266;7.402;2023-08-06T12:31:56;3.30;;;0.60;;
43146;SDS011;28752;48.266;7.402;2023-08-06T12:34:21;0.53;;;0.30;;
43146;SDS011;28752;48.266;7.402;2023-08-06T12:36:47;1.73;;;0.63;;
43146;SDS011;28752;48.266;7.402;2023-08-06T12:39:12;1.00;;;0.60;;
43146;SDS011;28752;48.266;7.402;2023-08-06T12:41:38;2.03;;;0.40;;
43146;SDS011;28752;48.266;7.402;2023-08-06T12:44:03;1.45;;;0.60;;
43146;SDS011;28752;48.266;7.402;2023-08-06T12:46:29;0.83;;;0.50;;
43146;SDS011;28752;48.266;7.402;2023-08-06T12:48:55;2.80;;;0.70;;
43146;SDS011;28752;48.266;7.402;2023-08-06T12:51:22;1.58;;;0.60;;
43146;SDS011;28752;48.266;7.402;2023-08-06T12:53:48;4.78;;;0.55;;
43146;SDS011;28752;48.266;7.402;2023-08-06T12:56:13;2.37;;;0.60;;
43146;SDS011;28752;48.266;7.402;2023-08-06T12:58:39;0.57;;;0.50;;
43146;SDS011;28752;48.266;7.402;2023-08-06T13:01:05;0.65;;;0.40;;
43146;SDS011;28752;48.266;7.402;2023-08-06T13:03:30;1.13;;;0.60;;
43146;SDS011;28752;48.266;7.402;2023-08-06T13:05:55;1.80;;;0.67;;
43146;SDS011;28752;48.266;7.402;2023-08-06T13:08:22;1.73;;;0.52;;
43146;SDS011;28752;48.266;7.402;2023-08-06T13:10:48;0.98;;;0.40;;
43146;SDS011;28752;48.266;7.402;2023-08-06T13:13:13;0.88;;;0.40;;
43146;SDS011;28752;48.266;7.402;2023-08-06T13:15:39;2.00;;;0.60;;
43146;SDS011;28752;48.266;7.402;2023-08-06T13:18:04;1.43;;;0.50;;
43146;SDS011;28752;48.266;7.402;2023-08-06T13:20:30;1.63;;;0.67;;
43146;SDS011;28752;48.266;7.402;2023-08-06T13:22:55;1.20;;;0.40;;
43146;SDS011;28752;48.266;7.402;2023-08-06T13:25:21;1.23;;;0.40;;
43146;SDS011;28752;48.266;7.402;2023-08-06T13:27:46;0.80;;;0.45;;
43146;SDS011;28752;48.266;7.402;2023-08-06T13:30:12;1.73;;;0.70;;
43146;SDS011;28752;48.266;7.402;2023-08-06T13:32:38;1.35;;;0.40;;
43146;SDS011;28752;48.266;7.402;2023-08-06T13:35:04;1.80;;;0.60;;
43146;SDS011;28752;48.266;7.402;2023-08-06T13:37:29;2.50;;;0.60;;
43146;SDS011;28752;48.266;7.402;2023-08-06T13:39:55;1.63;;;0.53;;
43146;SDS011;28752;48.266;7.402;2023-08-06T13:42:20;2.87;;;0.50;;
43146;SDS011;28752;48.266;7.402;2023-08-06T13:44:46;1.97;;;0.60;;
43146;SDS011;28752;48.266;7.402;2023-08-06T13:47:11;1.20;;;0.60;;
43146;SDS011;28752;48.266;7.402;2023-08-06T13:49:37;1.17;;;0.50;;
43146;SDS011;28752;48.266;7.402;2023-08-06T13:52:02;1.50;;;0.50;;
43146;SDS011;28752;48.266;7.402;2023-08-06T13:54:27;1.80;;;0.63;;
43146;SDS011;28752;48.266;7.402;2023-08-06T13:56:53;2.27;;;0.60;;
43146;SDS011;28752;48.266;7.402;2023-08-06T13:59:18;1.00;;;0.40;;
43146;SDS011;28752;48.266;7.402;2023-08-06T14:01:45;1.05;;;0.45;;
43146;SDS011;28752;48.266;7.402;2023-08-06T14:04:10;1.30;;;0.50;;
43146;SDS011;28752;48.266;7.402;2023-08-06T14:06:36;0.97;;;0.50;;
43146;SDS011;28752;48.266;7.402;2023-08-06T14:09:01;1.77;;;0.80;;
43146;SDS011;28752;48.266;7.402;2023-08-06T14:11:26;1.47;;;0.53;;
43146;SDS011;28752;48.266;7.402;2023-08-06T14:13:52;1.38;;;0.60;;
43146;SDS011;28752;48.266;7.402;2023-08-06T14:16:17;1.60;;;0.60;;
43146;SDS011;28752;48.266;7.402;2023-08-06T14:18:43;2.70;;;0.90;;
43146;SDS011;28752;48.266;7.402;2023-08-06T14:21:08;2.10;;;0.70;;
43146;SDS011;28752;48.266;7.402;2023-08-06T14:23:34;2.13;;;0.60;;
43146;SDS011;28752;48.266;7.402;2023-08-06T14:25:59;2.97;;;0.83;;
43146;SDS011;28752;48.266;7.402;2023-08-06T14:28:24;1.73;;;0.80;;
43146;SDS011;28752;48.266;7.402;2023-08-06T14:30:50;2.93;;;0.70;;
43146;SDS011;28752;48.266;7.402;2023-08-06T14:33:15;1.63;;;0.80;;
43146;SDS011;28752;48.266;7.402;2023-08-06T14:35:41;4.90;;;0.80;;
43146;SDS011;28752;48.266;7.402;2023-08-06T14:38:06;1.63;;;0.60;;
43146;SDS011;28752;48.266;7.402;2023-08-06T14:40:32;1.47;;;0.77;;
43146;SDS011;28752;48.266;7.402;2023-08-06T14:43:02;3.25;;;0.70;;
43146;SDS011;28752;48.266;7.402;2023-08-06T14:45:28;1.00;;;0.52;;
43146;SDS011;28752;48.266;7.402;2023-08-06T14:47:53;2.60;;;0.60;;
43146;SDS011;28752;48.266;7.402;2023-08-06T14:50:18;2.47;;;0.80;;
43146;SDS011;28752;48.266;7.402;2023-08-06T14:52:44;1.73;;;0.50;;
43146;SDS011;28752;48.266;7.402;2023-08-06T14:55:09;1.67;;;0.67;;
43146;SDS011;28752;48.266;7.402;2023-08-06T14:57:34;2.37;;;0.70;;
43146;SDS011;28752;48.266;7.402;2023-08-06T15:00:00;1.80;;;0.87;;
43146;SDS011;28752;48.266;7.402;2023-08-06T15:02:25;1.70;;;1.03;;
43146;SDS011;28752;48.266;7.402;2023-08-06T15:04:51;1.23;;;0.60;;
43146;SDS011;28752;48.266;7.402;2023-08-06T15:07:17;2.40;;;0.80;;
43146;SDS011;28752;48.266;7.402;2023-08-06T15:09:42;2.20;;;0.97;;
43146;SDS011;28752;48.266;7.402;2023-08-06T15:12:08;1.70;;;0.60;;
43146;SDS011;28752;48.266;7.402;2023-08-06T15:14:33;3.60;;;0.60;;
43146;SDS011;28752;48.266;7.402;2023-08-06T15:16:58;3.67;;;0.80;;